sensor_id;sensor_type;location;lat;lon;timestamp;temperature;humidity
18043;DHT22;9146;48.074;11.968;2023-11-21T00:01:32;5.20;99.90
18043;DHT22;9146;48.074;11.968;2023-11-21T00:04:01;5.20;99.90
18043;DHT22;9146;48.074;11.968;2023-11-21T00:06:28;5.10;99.90
18043;DHT22;9146;48.074;11.968;2023-11-21T00:08:55;5.10;99.90
18043;DHT22;9146;48.074;11.968;2023-11-21T00:11:22;5.20;99.90
18043;DHT22;9146;48.074;11.968;2023-11-21T00:13:51;5.10;99.90
18043;DHT22;9146;48.074;11.968;2023-11-21T00:16:17;5.20;99.90
18043;DHT22;9146;48.074;11.968;2023-11-21T00:18:44;5.20;99.90
18043;DHT22;9146;48.074;11.968;2023-11-21T00:21:14;5.30;99.90
18043;DHT22;9146;48.074;11.968;2023-11-21T00:23:41;5.30;99.90
18043;DHT22;9146;48.074;11.968;2023-11-21T00:26:08;5.40;99.90
18043;DHT22;9146;48.074;11.968;2023-11-21T00:28:35;5.40;99.90
18043;DHT22;9146;48.074;11.968;2023-11-21T00:31:02;5.50;99.90
18043;DHT22;9146;48.074;11.968;2023-11-21T00:33:29;5.50;99.90
18043;DHT22;9146;48.074;11.968;2023-11-21T00:35:56;5.50;99.90
18043;DHT22;9146;48.074;11.968;2023-11-21T00:38:24;5.50;99.90
18043;DHT22;9146;48.074;11.968;2023-11-21T00:40:52;5.50;99.90
18043;DHT22;9146;48.074;11.968;2023-11-21T00:43:21;5.40;99.90
18043;DHT22;9146;48.074;11.968;2023-11-21T00:45:48;5.40;99.90
18043;DHT22;9146;48.074;11.968;2023-11-21T00:48:15;5.40;99.90
18043;DHT22;9146;48.074;11.968;2023-11-21T00:50:43;5.40;99.90
18043;DHT22;9146;48.074;11.968;2023-11-21T00:53:10;5.40;99.90
18043;DHT22;9146;48.074;11.968;2023-11-21T00:55:39;5.40;99.90
18043;DHT22;9146;48.074;11.968;2023-11-21T00:58:06;5.20;99.90
18043;DHT22;9146;48.074;11.968;2023-11-21T01:00:33;5.30;99.90
18043;DHT22;9146;48.074;11.968;2023-11-21T01:03:00;5.30;99.90
18043;DHT22;9146;48.074;11.968;2023-11-21T01:05:28;5.20;99.90
18043;DHT22;9146;48.074;11.968;2023-11-21T01:07:55;5.20;99.90
18043;DHT22;9146;48.074;11.968;2023-11-21T01:10:22;5.20;99.90
18043;DHT22;9146;48.074;11.968;2023-11-21T01:12:50;5.20;99.90
18043;DHT22;9146;48.074;11.968;2023-11-21T01:15:17;5.10;99.90
18043;DHT22;9146;48.074;11.968;2023-11-21T01:17:44;5.10;99.90
18043;DHT22;9146;48.074;11.968;2023-11-21T01:20:11;5.10;99.90
18043;DHT22;9146;48.074;11.968;2023-11-21T01:22:38;5.00;99.90
18043;DHT22;9146;48.074;11.968;2023-11-21T01:25:06;5.00;99.90
18043;DHT22;9146;48.074;11.968;2023-11-21T01:27:33;5.00;99.90
18043;DHT22;9146;48.074;11.968;2023-11-21T01:30:04;4.90;99.90
18043;DHT22;9146;48.074;11.968;2023-11-21T01:32:32;4.90;99.90
18043;DHT22;9146;48.074;11.968;2023-11-21T01:35:03;4.80;99.90
18043;DHT22;9146;48.074;11.968;2023-11-21T01:37:31;4.80;99.90
18043;DHT22;9146;48.074;11.968;2023-11-21T01:39:58;4.80;99.90
18043;DHT22;9146;48.074;11.968;2023-11-21T01:42:26;4.80;99.90
18043;DHT22;9146;48.074;11.968;2023-11-21T01:44:54;4.60;99.90
18043;DHT22;9146;48.074;11.968;2023-11-21T01:47:23;4.70;99.90
18043;DHT22;9146;48.074;11.968;2023-11-21T01:49:51;4.70;99.90
18043;DHT22;9146;48.074;11.968;2023-11-21T01:52:19;4.70;99.90
18043;DHT22;9146;48.074;11.968;2023-11-21T01:54:46;4.70;99.90
18043;DHT22;9146;48.074;11.968;2023-11-21T01:57:13;4.70;99.90
18043;DHT22;9146;48.074;11.968;2023-11-21T01:59:42;4.70;99.90
18043;DHT22;9146;48.074;11.968;2023-11-21T02:02:10;4.70;99.90
18043;DHT22;9146;48.074;11.968;2023-11-21T02:04:39;4.70;99.90
18043;DHT22;9146;48.074;11.968;2023-11-21T02:07:06;4.70;99.90
18043;DHT22;9146;48.074;11.968;2023-11-21T02:09:33;4.70;99.90
18043;DHT22;9146;48.074;11.968;2023-11-21T02:12:04;4.70;99.90
18043;DHT22;9146;48.074;11.968;2023-11-21T02:14:31;4.70;99.90
18043;DHT22;9146;48.074;11.968;2023-11-21T02:16:58;4.60;99.90
18043;DHT22;9146;48.074;11.968;2023-11-21T02:19:26;4.60;99.90
18043;DHT22;9146;48.074;11.968;2023-11-21T02:21:57;4.60;99.90
18043;DHT22;9146;48.074;11.968;2023-11-21T02:24:27;4.60;99.90
18043;DHT22;9146;48.074;11.968;2023-11-21T02:26:54;4.70;99.90
18043;DHT22;9146;48.074;11.968;2023-11-21T02:29:21;4.70;99.90
18043;DHT22;9146;48.074;11.968;2023-11-21T02:31:53;4.70;99.90
18043;DHT22;9146;48.074;11.968;2023-11-21T02:34:21;4.70;99.90
18043;DHT22;9146;48.074;11.968;2023-11-21T02:36:48;4.80;99.90
18043;DHT22;9146;48.074;11.968;2023-11-21T02:39:17;4.80;99.90
18043;DHT22;9146;48.074;11.968;2023-11-21T02:41:45;4.80;99.90
18043;DHT22;9146;48.074;11.968;2023-11-21T02:44:12;4.80;99.90
18043;DHT22;9146;48.074;11.968;2023-11-21T02:46:39;4.80;99.90
18043;DHT22;9146;48.074;11.968;2023-11-21T02:49:06;4.80;99.90
18043;DHT22;9146;48.074;11.968;2023-11-21T02:51:35;4.90;99.90
18043;DHT22;9146;48.074;11.968;2023-11-21T02:54:03;4.90;99.90
18043;DHT22;9146;48.074;11.968;2023-11-21T02:56:32;4.90;99.90
18043;DHT22;9146;48.074;11.968;2023-11-21T02:59:01;5.00;99.90
18043;DHT22;9146;48.074;11.968;2023-11-21T03:01:28;5.00;99.90
18043;DHT22;9146;48.074;11.968;2023-11-21T03:03:55;5.00;99.90
18043;DHT22;9146;48.074;11.968;2023-11-21T03:06:22;5.10;99.90
18043;DHT22;9146;48.074;11.968;2023-11-21T03:08:49;5.10;99.90
18043;DHT22;9146;48.074;11.968;2023-11-21T03:11:16;5.20;99.90
18043;DHT22;9146;48.074;11.968;2023-11-21T03:13:43;5.20;99.90
18043;DHT22;9146;48.074;11.968;2023-11-21T03:16:12;5.30;99.90
18043;DHT22;9146;48.074;11.968;2023-11-21T03:18:39;5.30;99.90
18043;DHT22;9146;48.074;11.968;2023-11-21T03:21:07;5.30;99.90
18043;DHT22;9146;48.074;11.968;2023-11-21T03:23:34;5.30;99.90
18043;DHT22;9146;48.074;11.968;2023-11-21T03:26:01;5.30;99.90
18043;DHT22;9146;48.074;11.968;2023-11-21T03:28:28;5.30;99.90
18043;DHT22;9146;48.074;11.968;2023-11-21T03:30:55;5.30;99.90
18043;DHT22;9146;48.074;11.968;2023-11-21T03:33:24;5.20;99.90
18043;DHT22;9146;48.074;11.968;2023-11-21T03:35:51;5.20;99.90
18043;DHT22;9146;48.074;11.968;2023-11-21T03:38:19;5.20;99.90
18043;DHT22;9146;48.074;11.968;2023-11-21T03:40:46;5.20;99.90
18043;DHT22;9146;48.074;11.968;2023-11-21T03:43:13;5.20;99.90
18043;DHT22;9146;48.074;11.968;2023-11-21T03:45:40;5.20;99.90
18043;DHT22;9146;48.074;11.968;2023-11-21T03:48:07;5.20;99.90
